createdAt,value
2023-09-16T00:01:23.824Z,99225.00
2023-09-16T00:03:50.899Z,99228.00
2023-09-16T00:06:17.922Z,99217.00
2023-09-16T00:08:44.992Z,99232.00
2023-09-16T00:11:12.079Z,99227.00
2023-09-16T00:13:39.117Z,99221.00
2023-09-16T00:16:06.126Z,99211.00
2023-09-16T00:18:33.202Z,99221.00
2023-09-16T00:21:00.207Z,99215.00
2023-09-16T00:23:27.211Z,99214.00
2023-09-16T00:25:54.317Z,99213.00
2023-09-16T00:28:21.323Z,99206.00
2023-09-16T00:30:48.812Z,99212.00
2023-09-16T00:33:16.084Z,99217.00
2023-09-16T00:35:43.103Z,99215.00
2023-09-16T00:38:10.240Z,99200.00
2023-09-16T00:40:38.057Z,99218.00
2023-09-16T00:43:05.145Z,99202.00
2023-09-16T00:45:32.174Z,99210.00
2023-09-16T00:47:59.251Z,99218.00
2023-09-16T00:50:26.355Z,99222.00
2023-09-16T00:52:56.966Z,99218.00
2023-09-16T00:55:24.020Z,99196.00
2023-09-16T00:57:52.014Z,99208.00
2023-09-16T01:00:19.266Z,99206.00
2023-09-16T01:02:46.535Z,99198.00
2023-09-16T01:05:13.871Z,99211.00
2023-09-16T01:07:40.935Z,99216.00
2023-09-16T01:10:09.095Z,99205.00
2023-09-16T01:12:36.144Z,99204.00
2023-09-16T01:15:03.222Z,99207.00
2023-09-16T01:17:34.578Z,99200.00
2023-09-16T01:20:07.608Z,99200.00
2023-09-16T01:22:35.439Z,99199.00
2023-09-16T01:25:06.241Z,99200.00
2023-09-16T01:27:33.447Z,99213.00
2023-09-16T01:30:00.867Z,99212.00
2023-09-16T01:32:35.099Z,99212.00
2023-09-16T01:35:03.896Z,99213.00
2023-09-16T01:37:30.910Z,99211.00
2023-09-16T01:39:58.468Z,99225.00
2023-09-16T01:42:28.429Z,99222.00
2023-09-16T01:44:55.477Z,99219.00
2023-09-16T01:47:22.773Z,99224.00
2023-09-16T01:49:49.857Z,99220.00
2023-09-16T01:52:16.988Z,99218.00
2023-09-16T01:54:44.178Z,99211.00
2023-09-16T01:57:11.282Z,99224.00
2023-09-16T01:59:38.343Z,99222.00
2023-09-16T02:02:05.360Z,99213.00
2023-09-16T02:04:32.397Z,99199.00
2023-09-16T02:06:59.390Z,99210.00
2023-09-16T02:09:26.498Z,99210.00
2023-09-16T02:11:53.511Z,99213.00
2023-09-16T02:14:20.549Z,99209.00
2023-09-16T02:16:47.804Z,99203.00
2023-09-16T02:19:14.877Z,99212.00
2023-09-16T02:21:41.927Z,99206.00
2023-09-16T02:24:09.026Z,99216.00
2023-09-16T02:26:36.155Z,99212.00
2023-09-16T02:29:03.208Z,99213.00
2023-09-16T02:31:30.209Z,99214.00
2023-09-16T02:34:00.333Z,99212.00
2023-09-16T02:36:27.916Z,99201.00
2023-09-16T02:38:55.016Z,99211.00
2023-09-16T02:41:21.979Z,99215.00
2023-09-16T02:43:49.068Z,99214.00
2023-09-16T02:46:16.207Z,99215.00
2023-09-16T02:48:43.409Z,99214.00
2023-09-16T02:51:10.403Z,99214.00
2023-09-16T02:53:38.468Z,99210.00
2023-09-16T02:56:05.678Z,99203.00
2023-09-16T02:58:32.707Z,99208.00
2023-09-16T03:00:59.769Z,99213.00
2023-09-16T03:03:27.130Z,99217.00
2023-09-16T03:05:54.201Z,99211.00
2023-09-16T03:08:21.335Z,99207.00
2023-09-16T03:10:48.506Z,99195.00
2023-09-16T03:13:15.472Z,99212.00
2023-09-16T03:15:46.998Z,99212.00
2023-09-16T03:18:14.232Z,99223.00
2023-09-16T03:20:41.307Z,99216.00
2023-09-16T03:23:08.367Z,99220.00
2023-09-16T03:25:35.372Z,99208.00
2023-09-16T03:28:02.467Z,99204.00
2023-09-16T03:30:29.561Z,99204.00
2023-09-16T03:32:56.552Z,99197.00
2023-09-16T03:35:23.652Z,99198.00
2023-09-16T03:37:50.692Z,99193.00
2023-09-16T03:40:17.824Z,99179.00
2023-09-16T03:42:44.941Z,99168.00
2023-09-16T03:45:23.134Z,99170.00
2023-09-16T03:47:54.466Z,99180.00
2023-09-16T03:50:21.703Z,99184.00
2023-09-16T03:52:48.694Z,99175.00
2023-09-16T03:55:16.110Z,99187.00
2023-09-16T03:57:43.299Z,99186.00
2023-09-16T04:00:11.228Z,99186.00
2023-09-16T04:02:38.537Z,99192.00
2023-09-16T04:05:06.778Z,99192.00
2023-09-16T04:07:33.905Z,99191.00
2023-09-16T04:10:01.067Z,99197.00
2023-09-16T04:12:28.173Z,99196.00
2023-09-16T04:14:55.120Z,99182.00
2023-09-16T04:17:22.165Z,99191.00
2023-09-16T04:19:49.160Z,99185.00
2023-09-16T04:22:16.197Z,99191.00
2023-09-16T04:24:43.409Z,99188.00
2023-09-16T04:27:10.420Z,99187.00
2023-09-16T04:29:37.419Z,99199.00
2023-09-16T04:32:05.109Z,99181.00
2023-09-16T04:34:33.567Z,99199.00
2023-09-16T04:37:00.971Z,99188.00
2023-09-16T04:39:28.206Z,99191.00
2023-09-16T04:41:55.187Z,99179.00
2023-09-16T04:44:22.595Z,99192.00
2023-09-16T04:46:50.111Z,99188.00
2023-09-16T04:49:17.135Z,99190.00
2023-09-16T04:51:44.191Z,99182.00
2023-09-16T04:54:11.155Z,99184.00
2023-09-16T04:56:38.201Z,99184.00
2023-09-16T04:59:05.571Z,99186.00
2023-09-16T05:01:33.121Z,99187.00
2023-09-16T05:04:00.423Z,99192.00
2023-09-16T05:06:27.695Z,99182.00
2023-09-16T05:08:54.700Z,99200.00
2023-09-16T05:11:21.657Z,99190.00
2023-09-16T05:13:48.691Z,99202.00
2023-09-16T05:16:15.735Z,99204.00
2023-09-16T05:18:42.835Z,99204.00
2023-09-16T05:21:09.830Z,99185.00
2023-09-16T05:23:36.835Z,99209.00
2023-09-16T05:26:05.752Z,99199.00
2023-09-16T05:28:32.854Z,99195.00
2023-09-16T05:30:59.834Z,99205.00
2023-09-16T05:33:26.861Z,99218.00
2023-09-16T05:35:53.801Z,99214.00
2023-09-16T05:38:20.885Z,99214.00
2023-09-16T05:40:47.823Z,99211.00
2023-09-16T05:43:14.933Z,99210.00
2023-09-16T05:45:42.096Z,99210.00
2023-09-16T05:48:09.163Z,99211.00
2023-09-16T05:50:36.117Z,99216.00
2023-09-16T05:53:04.877Z,99217.00
2023-09-16T05:55:31.833Z,99211.00
2023-09-16T05:57:58.894Z,99216.00
2023-09-16T06:00:25.922Z,99213.00
2023-09-16T06:02:53.478Z,99222.00
2023-09-16T06:05:20.644Z,99213.00
2023-09-16T06:07:47.674Z,99202.00
2023-09-16T06:10:14.733Z,99211.00
2023-09-16T06:12:41.734Z,99209.00
2023-09-16T06:15:09.598Z,99219.00
2023-09-16T06:17:36.614Z,99223.00
2023-09-16T06:20:04.222Z,99211.00
2023-09-16T06:22:31.141Z,99210.00
2023-09-16T06:24:58.169Z,99213.00
2023-09-16T06:27:25.129Z,99210.00
2023-09-16T06:29:52.207Z,99223.00
2023-09-16T06:32:19.220Z,99228.00
2023-09-16T06:34:46.409Z,99227.00
2023-09-16T06:37:13.428Z,99223.00
2023-09-16T06:39:40.509Z,99226.00
2023-09-16T06:42:07.525Z,99229.00
2023-09-16T06:44:34.515Z,99231.00
2023-09-16T06:47:01.576Z,99211.00
2023-09-16T06:49:28.584Z,99205.00
2023-09-16T06:51:55.606Z,99200.00
2023-09-16T06:54:22.656Z,99209.00
2023-09-16T06:56:49.638Z,99218.00
2023-09-16T07:02:01.115Z,99223.00
2023-09-16T07:04:28.263Z,99225.00
2023-09-16T07:06:55.977Z,99238.00
2023-09-16T07:09:23.156Z,99244.00
2023-09-16T07:11:50.169Z,99250.00
2023-09-16T07:14:17.203Z,99248.00
2023-09-16T07:16:44.221Z,99251.00
2023-09-16T07:19:11.373Z,99253.00
2023-09-16T07:21:38.630Z,99245.00
2023-09-16T07:24:06.892Z,99252.00
2023-09-16T07:26:34.956Z,99255.00
2023-09-16T07:29:02.026Z,99260.00
2023-09-16T07:31:29.991Z,99267.00
2023-09-16T07:33:57.087Z,99270.00
2023-09-16T07:36:24.139Z,99270.00
2023-09-16T07:38:51.282Z,99267.00
2023-09-16T07:41:19.729Z,99267.00
2023-09-16T07:43:46.717Z,99269.00
2023-09-16T07:46:13.820Z,99263.00
2023-09-16T07:48:40.950Z,99267.00
2023-09-16T07:51:07.968Z,99276.00
2023-09-16T07:53:34.971Z,99273.00
2023-09-16T07:56:02.114Z,99277.00
2023-09-16T07:58:29.143Z,99280.00
2023-09-16T08:00:56.229Z,99282.00
2023-09-16T08:03:23.564Z,99277.00
2023-09-16T08:05:50.725Z,99279.00
2023-09-16T08:08:18.213Z,99294.00
2023-09-16T08:10:48.472Z,99309.00
2023-09-16T08:13:15.516Z,99295.00
2023-09-16T08:15:42.568Z,99295.00
2023-09-16T08:18:09.719Z,99292.00
2023-09-16T08:20:36.764Z,99285.00
2023-09-16T08:23:03.880Z,99294.00
2023-09-16T08:25:30.956Z,99295.00
2023-09-16T08:27:58.136Z,99296.00
2023-09-16T08:30:25.172Z,99310.00
2023-09-16T08:32:52.321Z,99304.00
2023-09-16T08:35:19.308Z,99298.00
2023-09-16T08:37:46.338Z,99311.00
2023-09-16T08:40:13.448Z,99317.00
2023-09-16T08:42:46.025Z,99320.00
2023-09-16T08:45:17.271Z,99328.00
2023-09-16T08:47:54.357Z,99329.00
2023-09-16T08:50:22.985Z,99337.00
2023-09-16T08:52:53.849Z,99338.00
2023-09-16T08:55:21.166Z,99330.00
2023-09-16T08:57:57.375Z,99338.00
2023-09-16T09:00:25.300Z,99332.00
2023-09-16T09:02:52.425Z,99335.00
2023-09-16T09:05:19.762Z,99334.00
2023-09-16T09:07:46.801Z,99336.00
2023-09-16T09:10:14.088Z,99332.00
2023-09-16T09:12:42.653Z,99320.00
2023-09-16T09:15:14.948Z,99327.00
2023-09-16T09:17:49.655Z,99324.00
2023-09-16T09:20:20.628Z,99321.00
2023-09-16T09:22:49.012Z,99318.00
2023-09-16T09:25:16.056Z,99326.00
2023-09-16T09:27:43.182Z,99309.00
2023-09-16T09:30:10.940Z,99300.00
2023-09-16T09:32:39.304Z,99296.00
2023-09-16T09:35:06.810Z,99288.00
2023-09-16T09:37:34.267Z,99280.00
2023-09-16T09:40:13.283Z,99285.00
2023-09-16T09:42:43.310Z,99289.00
2023-09-16T09:45:11.338Z,99287.00
2023-09-16T09:47:39.015Z,99267.00
2023-09-16T09:50:07.582Z,99259.00
2023-09-16T09:52:34.983Z,99277.00
2023-09-16T09:55:04.428Z,99276.00
2023-09-16T09:57:32.727Z,99280.00
2023-09-16T09:59:59.973Z,99279.00
2023-09-16T10:02:27.223Z,99278.00
2023-09-16T10:05:01.154Z,99281.00
2023-09-16T10:07:28.833Z,99282.00
2023-09-16T10:09:57.169Z,99272.00
2023-09-16T10:12:24.372Z,99279.00
2023-09-16T10:14:51.578Z,99265.00
2023-09-16T10:17:21.950Z,99271.00
2023-09-16T10:19:49.037Z,99264.00
2023-09-16T10:22:16.293Z,99259.00
2023-09-16T10:24:44.641Z,99265.00
2023-09-16T10:27:29.830Z,99265.00
2023-09-16T10:29:57.162Z,99251.00
2023-09-16T10:32:24.400Z,99266.00
2023-09-16T10:34:51.507Z,99258.00
2023-09-16T10:37:18.573Z,99254.00
2023-09-16T10:39:47.487Z,99245.00
2023-09-16T10:42:16.105Z,99244.00
2023-09-16T10:44:43.408Z,99255.00
2023-09-16T10:47:11.115Z,99255.00
2023-09-16T10:49:41.213Z,99260.00
2023-09-16T10:52:10.899Z,99247.00
2023-09-16T10:54:47.090Z,99244.00
2023-09-16T10:57:20.412Z,99248.00
2023-09-16T10:59:48.760Z,99258.00
2023-09-16T11:02:50.032Z,99258.00
2023-09-16T11:05:17.319Z,99265.00
2023-09-16T11:07:44.297Z,99257.00
2023-09-16T11:10:11.499Z,99258.00
2023-09-16T11:12:38.852Z,99259.00
2023-09-16T11:15:09.776Z,99245.00
2023-09-16T11:17:39.977Z,99234.00
2023-09-16T11:20:23.356Z,99245.00
2023-09-16T11:22:50.671Z,99250.00
2023-09-16T11:25:18.319Z,99235.00
2023-09-16T11:27:46.483Z,99249.00
2023-09-16T11:30:17.159Z,99254.00
2023-09-16T11:32:56.247Z,99256.00
2023-09-16T11:35:23.504Z,99231.00
2023-09-16T11:37:50.649Z,99230.00
2023-09-16T11:40:17.747Z,99222.00
2023-09-16T11:42:45.080Z,99216.00
2023-09-16T11:45:12.236Z,99217.00
2023-09-16T11:47:39.480Z,99220.00
2023-09-16T11:50:24.144Z,99231.00
2023-09-16T11:52:54.311Z,99237.00
2023-09-16T11:55:21.456Z,99235.00
2023-09-16T11:57:49.265Z,99231.00
2023-09-16T12:00:16.608Z,99214.00
2023-09-16T12:02:46.705Z,99215.00
2023-09-16T12:05:13.742Z,99209.00
2023-09-16T12:07:40.889Z,99208.00
2023-09-16T12:10:08.639Z,99191.00
2023-09-16T12:12:38.817Z,99201.00
2023-09-16T12:15:06.544Z,99211.00
2023-09-16T12:17:33.797Z,99207.00
2023-09-16T12:20:01.036Z,99207.00
2023-09-16T12:22:28.186Z,99207.00
2023-09-16T12:24:55.444Z,99223.00
2023-09-16T12:27:26.523Z,99217.00
2023-09-16T12:29:53.764Z,99219.00
2023-09-16T12:32:20.970Z,99216.00
2023-09-16T12:35:03.501Z,99223.00
2023-09-16T12:37:30.719Z,99220.00
2023-09-16T12:39:58.281Z,99230.00
2023-09-16T12:42:25.554Z,99222.00
2023-09-16T12:44:52.708Z,99232.00
2023-09-16T12:47:21.864Z,99231.00
2023-09-16T12:49:48.980Z,99224.00
2023-09-16T12:52:16.005Z,99219.00
2023-09-16T12:54:43.828Z,99225.00
2023-09-16T12:57:14.570Z,99218.00
2023-09-16T13:00:01.981Z,99224.00
2023-09-16T13:02:29.024Z,99213.00
2023-09-16T13:05:24.282Z,99209.00
2023-09-16T13:07:56.248Z,99208.00
2023-09-16T13:10:23.418Z,99199.00
2023-09-16T13:12:51.270Z,99194.00
2023-09-16T13:15:21.301Z,99202.00
2023-09-16T13:17:49.988Z,99202.00
2023-09-16T13:20:18.309Z,99214.00
2023-09-16T13:22:55.479Z,99205.00
2023-09-16T13:25:29.633Z,99213.00
2023-09-16T13:28:05.753Z,99218.00
2023-09-16T13:30:40.718Z,99213.00
2023-09-16T13:33:08.283Z,99209.00
2023-09-16T13:35:36.519Z,99216.00
2023-09-16T13:38:03.703Z,99212.00
2023-09-16T13:40:31.907Z,99219.00
2023-09-16T13:43:02.531Z,99217.00
2023-09-16T13:45:29.851Z,99202.00
2023-09-16T13:48:10.832Z,99194.00
2023-09-16T13:50:45.864Z,99206.00
2023-09-16T13:53:13.782Z,99217.00
2023-09-16T13:55:40.814Z,99208.00
2023-09-16T13:58:08.262Z,99208.00
2023-09-16T14:00:37.051Z,99210.00
2023-09-16T14:03:05.622Z,99200.00
2023-09-16T14:05:32.773Z,99207.00
2023-09-16T14:07:59.827Z,99186.00
2023-09-16T14:10:29.817Z,99195.00
2023-09-16T14:12:58.193Z,99196.00
2023-09-16T14:15:25.903Z,99191.00
2023-09-16T14:17:53.453Z,99193.00
2023-09-16T14:20:20.505Z,99195.00
2023-09-16T14:22:48.471Z,99183.00
2023-09-16T14:25:15.612Z,99190.00
2023-09-16T14:27:42.887Z,99191.00
2023-09-16T14:30:13.730Z,99189.00
2023-09-16T14:32:40.878Z,99193.00
2023-09-16T14:35:08.493Z,99191.00
2023-09-16T14:37:35.529Z,99183.00
2023-09-16T14:40:02.840Z,99194.00
2023-09-16T14:42:30.063Z,99193.00
2023-09-16T14:44:57.173Z,99195.00
2023-09-16T14:47:24.152Z,99196.00
2023-09-16T14:49:51.399Z,99199.00
2023-09-16T14:52:18.556Z,99209.00
2023-09-16T14:54:45.584Z,99201.00
2023-09-16T14:57:12.576Z,99190.00
2023-09-16T14:59:39.590Z,99190.00
2023-09-16T15:02:06.769Z,99186.00
2023-09-16T15:04:33.937Z,99190.00
2023-09-16T15:07:00.989Z,99180.00
2023-09-16T15:09:29.865Z,99198.00
2023-09-16T15:11:57.081Z,99182.00
2023-09-16T15:14:24.222Z,99194.00
2023-09-16T15:16:51.366Z,99198.00
2023-09-16T15:19:18.487Z,99195.00
2023-09-16T15:21:45.596Z,99195.00
2023-09-16T15:24:12.671Z,99199.00
2023-09-16T15:26:39.820Z,99208.00
2023-09-16T15:29:06.771Z,99209.00
2023-09-16T15:31:34.075Z,99219.00
2023-09-16T15:34:01.233Z,99208.00
2023-09-16T15:36:28.580Z,99223.00
2023-09-16T15:38:55.638Z,99212.00
2023-09-16T15:41:22.768Z,99218.00
2023-09-16T15:43:50.105Z,99211.00
2023-09-16T15:46:17.494Z,99200.00
2023-09-16T15:48:44.595Z,99211.00
2023-09-16T15:51:11.638Z,99212.00
2023-09-16T15:53:38.755Z,99197.00
2023-09-16T15:56:05.771Z,99197.00
2023-09-16T15:58:32.841Z,99210.00
2023-09-16T16:01:00.080Z,99193.00
2023-09-16T16:03:28.223Z,99202.00
2023-09-16T16:05:55.465Z,99213.00
2023-09-16T16:08:22.793Z,99203.00
2023-09-16T16:10:50.421Z,99200.00
2023-09-16T16:13:20.711Z,99204.00
2023-09-16T16:15:51.469Z,99209.00
2023-09-16T16:18:18.615Z,99212.00
2023-09-16T16:20:45.673Z,99218.00
2023-09-16T16:23:12.740Z,99209.00
2023-09-16T16:25:39.798Z,99217.00
2023-09-16T16:28:06.831Z,99215.00
2023-09-16T16:30:33.996Z,99216.00
2023-09-16T16:33:01.100Z,99216.00
2023-09-16T16:35:37.223Z,99213.00
2023-09-16T16:38:07.399Z,99218.00
2023-09-16T16:40:34.404Z,99221.00
2023-09-16T16:43:01.605Z,99226.00
2023-09-16T16:45:28.599Z,99223.00
2023-09-16T16:47:55.717Z,99213.00
2023-09-16T16:50:24.406Z,99218.00
2023-09-16T16:52:51.425Z,99218.00
2023-09-16T16:55:18.684Z,99221.00
2023-09-16T16:57:45.810Z,99209.00
2023-09-16T17:00:13.407Z,99206.00
2023-09-16T17:02:40.724Z,99210.00
2023-09-16T17:05:08.651Z,99203.00
2023-09-16T17:07:35.793Z,99207.00
2023-09-16T17:10:02.910Z,99213.00
2023-09-16T17:12:30.013Z,99216.00
2023-09-16T17:14:56.983Z,99201.00
2023-09-16T17:17:23.974Z,99204.00
2023-09-16T17:19:51.108Z,99208.00
2023-09-16T17:22:18.195Z,99190.00
2023-09-16T17:24:46.018Z,99187.00
2023-09-16T17:27:13.084Z,99186.00
2023-09-16T17:29:40.192Z,99199.00
2023-09-16T17:32:07.248Z,99199.00
2023-09-16T17:34:34.371Z,99196.00
2023-09-16T17:37:07.373Z,99200.00
2023-09-16T17:39:34.455Z,99195.00
2023-09-16T17:42:05.062Z,99201.00
2023-09-16T17:44:35.185Z,99212.00
2023-09-16T17:47:02.955Z,99221.00
2023-09-16T17:49:35.294Z,99219.00
2023-09-16T17:52:05.604Z,99220.00
2023-09-16T17:54:32.816Z,99208.00
2023-09-16T17:56:59.895Z,99211.00
2023-09-16T17:59:27.043Z,99228.00
2023-09-16T18:01:56.719Z,99215.00
2023-09-16T18:04:26.337Z,99216.00
2023-09-16T18:06:55.873Z,99209.00
2023-09-16T18:09:27.687Z,99210.00
2023-09-16T18:11:56.203Z,99205.00
2023-09-16T18:14:23.340Z,99208.00
2023-09-16T18:16:52.846Z,99219.00
2023-09-16T18:19:20.511Z,99229.00
2023-09-16T18:21:47.661Z,99228.00
2023-09-16T18:24:15.928Z,99243.00
2023-09-16T18:26:43.308Z,99263.00
2023-09-16T18:29:10.549Z,99249.00
2023-09-16T18:31:39.308Z,99265.00
2023-09-16T18:34:06.507Z,99268.00
2023-09-16T18:36:38.480Z,99274.00
2023-09-16T18:39:08.608Z,99279.00
2023-09-16T18:41:44.380Z,99275.00
2023-09-16T18:44:22.729Z,99284.00
2023-09-16T18:46:52.072Z,99280.00
2023-09-16T18:49:19.407Z,99281.00
2023-09-16T18:51:48.784Z,99271.00
2023-09-16T18:54:15.798Z,99290.00
2023-09-16T18:56:42.954Z,99269.00
2023-09-16T18:59:15.790Z,99290.00
2023-09-16T19:01:43.324Z,99280.00
2023-09-16T19:04:10.522Z,99293.00
2023-09-16T19:06:37.628Z,99292.00
2023-09-16T19:09:05.160Z,99297.00
2023-09-16T19:11:32.211Z,99292.00
2023-09-16T19:13:59.301Z,99297.00
2023-09-16T19:16:26.432Z,99289.00
2023-09-16T19:18:53.501Z,99297.00
2023-09-16T19:21:33.549Z,99316.00
2023-09-16T19:24:05.231Z,99318.00
2023-09-16T19:26:32.318Z,99299.00
2023-09-16T19:29:02.563Z,99294.00
2023-09-16T19:31:39.653Z,99280.00
2023-09-16T19:34:06.816Z,99294.00
2023-09-16T19:36:38.960Z,99284.00
2023-09-16T19:39:06.131Z,99297.00
2023-09-16T19:41:33.235Z,99310.00
2023-09-16T19:44:03.619Z,99305.00
2023-09-16T19:46:50.981Z,99310.00
2023-09-16T19:49:21.076Z,99319.00
2023-09-16T19:51:48.138Z,99321.00
2023-09-16T19:54:18.162Z,99310.00
2023-09-16T19:57:02.642Z,99317.00
2023-09-16T19:59:35.652Z,99320.00
2023-09-16T20:02:03.864Z,99322.00
2023-09-16T20:04:31.056Z,99311.00
2023-09-16T20:06:58.531Z,99309.00
2023-09-16T20:09:25.803Z,99297.00
2023-09-16T20:11:52.932Z,99309.00
2023-09-16T20:14:20.245Z,99320.00
2023-09-16T20:16:47.427Z,99323.00
2023-09-16T20:19:24.734Z,99322.00
2023-09-16T20:21:51.937Z,99331.00
2023-09-16T20:24:18.965Z,99331.00
2023-09-16T20:26:46.069Z,99343.00
2023-09-16T20:29:13.079Z,99335.00
2023-09-16T20:31:40.415Z,99320.00
2023-09-16T20:34:12.356Z,99332.00
2023-09-16T20:36:43.104Z,99348.00
2023-09-16T20:39:10.251Z,99351.00
2023-09-16T20:41:37.372Z,99342.00
2023-09-16T20:44:04.576Z,99346.00
2023-09-16T20:46:31.994Z,99345.00
2023-09-16T20:48:59.228Z,99326.00
2023-09-16T20:51:26.377Z,99351.00
2023-09-16T20:53:53.534Z,99334.00
2023-09-16T20:56:20.552Z,99342.00
2023-09-16T20:58:48.801Z,99338.00
2023-09-16T21:01:15.971Z,99343.00
2023-09-16T21:03:43.211Z,99346.00
2023-09-16T21:06:10.442Z,99340.00
2023-09-16T21:08:37.534Z,99329.00
2023-09-16T21:11:04.858Z,99330.00
2023-09-16T21:13:32.077Z,99332.00
2023-09-16T21:15:59.257Z,99326.00
2023-09-16T21:18:26.348Z,99325.00
2023-09-16T21:20:53.438Z,99311.00
2023-09-16T21:23:20.492Z,99312.00
2023-09-16T21:25:47.589Z,99316.00
2023-09-16T21:28:14.678Z,99304.00
2023-09-16T21:30:42.127Z,99320.00
2023-09-16T21:33:09.332Z,99322.00
2023-09-16T21:35:36.438Z,99317.00
2023-09-16T21:38:03.615Z,99312.00
2023-09-16T21:40:30.662Z,99319.00
2023-09-16T21:42:57.748Z,99314.00
2023-09-16T21:45:24.806Z,99311.00
2023-09-16T21:47:52.003Z,99322.00
2023-09-16T21:50:19.200Z,99318.00
2023-09-16T21:52:46.332Z,99320.00
2023-09-16T21:55:13.436Z,99329.00
2023-09-16T21:57:42.075Z,99319.00
2023-09-16T22:00:09.662Z,99314.00
2023-09-16T22:02:36.715Z,99320.00
2023-09-16T22:05:03.955Z,99317.00
2023-09-16T22:07:30.990Z,99330.00
2023-09-16T22:09:58.077Z,99325.00
2023-09-16T22:12:25.139Z,99322.00
2023-09-16T22:14:52.581Z,99339.00
2023-09-16T22:17:19.800Z,99341.00
2023-09-16T22:19:46.788Z,99331.00
2023-09-16T22:22:13.817Z,99331.00
2023-09-16T22:24:40.897Z,99322.00
2023-09-16T22:27:08.044Z,99335.00
2023-09-16T22:29:35.254Z,99326.00
2023-09-16T22:32:02.322Z,99334.00
2023-09-16T22:34:29.405Z,99339.00
2023-09-16T22:36:56.502Z,99346.00
2023-09-16T22:39:23.567Z,99341.00
2023-09-16T22:41:50.586Z,99348.00
2023-09-16T22:44:17.629Z,99338.00
2023-09-16T22:46:44.756Z,99332.00
2023-09-16T22:49:11.888Z,99339.00
2023-09-16T22:51:38.938Z,99338.00
2023-09-16T22:54:06.120Z,99334.00
2023-09-16T22:56:33.156Z,99335.00
2023-09-16T22:59:00.175Z,99322.00
2023-09-16T23:01:27.280Z,99326.00
2023-09-16T23:04:02.817Z,99318.00
2023-09-16T23:06:29.797Z,99326.00
2023-09-16T23:08:56.922Z,99321.00
2023-09-16T23:11:23.981Z,99313.00
2023-09-16T23:13:51.498Z,99323.00
2023-09-16T23:16:19.252Z,99331.00
2023-09-16T23:18:46.733Z,99336.00
2023-09-16T23:21:13.978Z,99335.00
2023-09-16T23:23:40.998Z,99334.00
2023-09-16T23:26:08.080Z,99318.00
2023-09-16T23:28:35.594Z,99322.00
2023-09-16T23:31:02.753Z,99321.00
2023-09-16T23:33:29.826Z,99323.00
2023-09-16T23:35:56.907Z,99309.00
2023-09-16T23:38:23.951Z,99307.00
2023-09-16T23:40:51.019Z,99315.00
2023-09-16T23:43:18.105Z,99317.00
2023-09-16T23:45:45.218Z,99319.00
2023-09-16T23:48:12.240Z,99310.00
2023-09-16T23:50:39.248Z,99299.00
2023-09-16T23:53:06.361Z,99278.00
2023-09-16T23:55:33.424Z,99304.00
2023-09-16T23:58:00.529Z,99313.00
